createdAt,value
2022-11-16T00:01:28.984Z,971.9
2022-11-16T00:03:29.926Z,971.9
2022-11-16T00:05:30.923Z,971.8
2022-11-16T00:07:32.065Z,971.9
2022-11-16T00:11:34.946Z,972
2022-11-16T00:13:36.414Z,971.9
2022-11-16T00:15:37.921Z,971.9
2022-11-16T00:17:39.500Z,972
2022-11-16T00:21:42.419Z,972.1
2022-11-16T00:23:43.799Z,972
2022-11-16T00:27:46.528Z,972
2022-11-16T00:29:48.132Z,972.1
2022-11-16T00:31:49.109Z,972.1
2022-11-16T00:33:51.001Z,972
2022-11-16T00:35:52.564Z,972.1
2022-11-16T00:37:54.402Z,972
2022-11-16T00:39:55.683Z,972.2
2022-11-16T00:41:56.917Z,972
2022-11-16T00:43:58.390Z,971.9
2022-11-16T00:45:59.569Z,972
2022-11-16T00:48:01.287Z,972
2022-11-16T00:50:02.538Z,971.9
2022-11-16T00:52:04.178Z,971.9
2022-11-16T00:54:05.750Z,971.9
2022-11-16T00:56:07.296Z,972
2022-11-16T00:58:08.698Z,971.9
2022-11-16T01:00:10.587Z,971.8
2022-11-16T01:02:11.629Z,971.8
2022-11-16T01:04:13.082Z,971.8
2022-11-16T01:06:14.190Z,971.8
2022-11-16T01:10:17.160Z,971.8
2022-11-16T01:12:18.543Z,971.8
2022-11-16T01:14:28.840Z,971.8
2022-11-16T01:16:21.143Z,971.8
2022-11-16T01:18:22.474Z,971.8
2022-11-16T01:20:24.308Z,971.8
2022-11-16T01:22:25.281Z,971.7
2022-11-16T01:24:26.910Z,971.8
2022-11-16T01:26:28.387Z,971.8
2022-11-16T01:28:30.179Z,971.7
2022-11-16T01:30:31.950Z,971.8
2022-11-16T01:32:32.990Z,971.7
2022-11-16T01:34:34.347Z,971.7
2022-11-16T01:36:35.606Z,971.8
2022-11-16T01:38:36.965Z,971.8
2022-11-16T01:39:20.518Z,971.7
2022-11-16T01:41:22.325Z,971.7
2022-11-16T01:43:23.759Z,971.7
2022-11-16T01:45:24.719Z,971.6
2022-11-16T01:47:26.621Z,971.6
2022-11-16T01:49:27.853Z,971.6
2022-11-16T01:51:29.188Z,971.5
2022-11-16T01:53:30.431Z,971.5
2022-11-16T01:55:31.504Z,971.5
2022-11-16T01:57:32.521Z,971.5
2022-11-16T01:59:34.403Z,971.5
2022-11-16T02:01:35.509Z,971.6
2022-11-16T02:03:36.503Z,971.5
2022-11-16T02:05:37.763Z,971.5
2022-11-16T02:07:39.694Z,971.6
2022-11-16T02:09:41.470Z,971.6
2022-11-16T02:11:42.672Z,971.6
2022-11-16T02:13:44.416Z,971.6
2022-11-16T02:15:45.571Z,971.5
2022-11-16T02:17:46.590Z,971.6
2022-11-16T02:19:47.630Z,971.4
2022-11-16T02:21:49.344Z,971.5
2022-11-16T02:23:51.174Z,971.5
2022-11-16T02:25:52.338Z,971.5
2022-11-16T02:27:53.535Z,971.5
2022-11-16T02:29:54.581Z,971.5
2022-11-16T02:31:55.667Z,971.4
2022-11-16T02:33:57.606Z,971.3
2022-11-16T02:35:58.647Z,971.4
2022-11-16T02:37:59.881Z,971.3
2022-11-16T02:40:01.646Z,971.2
2022-11-16T02:42:02.769Z,971.2
2022-11-16T02:46:06.134Z,971.1
2022-11-16T02:48:07.241Z,971.1
2022-11-16T02:50:08.376Z,971.2
2022-11-16T02:52:10.029Z,971.2
2022-11-16T02:54:11.652Z,971.2
2022-11-16T02:56:13.488Z,971.2
2022-11-16T02:58:14.602Z,971.2
2022-11-16T03:00:16.432Z,971
2022-11-16T03:02:18.197Z,971
2022-11-16T03:04:19.679Z,971
2022-11-16T03:06:20.928Z,971
2022-11-16T03:08:22.723Z,971.1
2022-11-16T03:10:24.240Z,971
2022-11-16T03:12:25.757Z,970.9
2022-11-16T03:14:26.883Z,970.7
2022-11-16T03:16:28.678Z,970.8
2022-11-16T03:18:30.738Z,970.8
2022-11-16T03:20:31.883Z,970.8
2022-11-16T03:22:33.596Z,970.8
2022-11-16T03:24:34.650Z,970.8
2022-11-16T03:26:35.889Z,970.8
2022-11-16T03:28:37.558Z,970.8
2022-11-16T03:30:38.892Z,970.7
2022-11-16T03:32:40.341Z,970.8
2022-11-16T03:34:41.460Z,970.7
2022-11-16T03:36:42.579Z,970.7
2022-11-16T03:38:43.674Z,970.8
2022-11-16T03:40:44.747Z,970.7
2022-11-16T03:44:48.513Z,970.8
2022-11-16T03:46:50.418Z,970.9
2022-11-16T03:48:51.548Z,971
2022-11-16T03:50:52.521Z,970.9
2022-11-16T03:52:54.203Z,971
2022-11-16T03:54:55.677Z,970.9
2022-11-16T03:56:57.578Z,970.9
2022-11-16T03:58:59.235Z,970.9
2022-11-16T04:01:01.089Z,971
2022-11-16T04:03:02.354Z,971
2022-11-16T04:05:03.550Z,971
2022-11-16T04:07:05.226Z,970.9
2022-11-16T04:09:06.160Z,970.9
2022-11-16T04:11:07.982Z,970.9
2022-11-16T04:13:09.292Z,970.8
2022-11-16T04:15:11.114Z,970.9
2022-11-16T04:17:12.230Z,970.9
2022-11-16T04:19:13.490Z,970.8
2022-11-16T04:21:15.106Z,970.8
2022-11-16T04:23:16.802Z,970.8
2022-11-16T04:25:18.000Z,970.9
2022-11-16T04:27:19.445Z,970.8
2022-11-16T04:29:21.210Z,970.9
2022-11-16T04:31:22.596Z,970.8
2022-11-16T04:33:24.382Z,970.8
2022-11-16T04:35:26.233Z,970.9
2022-11-16T04:37:27.154Z,970.8
2022-11-16T04:39:28.776Z,970.8
2022-11-16T04:43:31.552Z,970.9
2022-11-16T04:45:33.418Z,970.8
2022-11-16T04:47:34.467Z,970.9
2022-11-16T04:49:36.311Z,970.9
2022-11-16T04:53:38.624Z,970.9
2022-11-16T04:55:39.982Z,970.9
2022-11-16T04:57:41.711Z,970.9
2022-11-16T04:59:43.002Z,970.8
2022-11-16T05:01:44.941Z,970.8
2022-11-16T05:03:46.311Z,970.8
2022-11-16T05:05:47.461Z,970.8
2022-11-16T05:07:49.337Z,970.8
2022-11-16T05:09:50.526Z,970.8
2022-11-16T05:11:52.154Z,970.8
2022-11-16T05:13:53.249Z,970.8
2022-11-16T05:15:54.294Z,970.9
2022-11-16T05:17:56.180Z,971
2022-11-16T05:19:57.595Z,970.9
2022-11-16T05:21:58.762Z,970.9
2022-11-16T05:24:00.093Z,970.9
2022-11-16T05:26:01.300Z,970.9
2022-11-16T05:28:02.453Z,970.8
2022-11-16T05:30:04.013Z,970.9
2022-11-16T05:32:04.908Z,971
2022-11-16T05:34:06.006Z,970.9
2022-11-16T05:36:07.537Z,971
2022-11-16T05:38:08.629Z,970.9
2022-11-16T05:40:09.565Z,970.8
2022-11-16T05:42:11.290Z,970.8
2022-11-16T05:44:12.717Z,970.8
2022-11-16T05:46:14.437Z,970.7
2022-11-16T05:48:16.226Z,970.8
2022-11-16T05:50:17.982Z,970.9
2022-11-16T05:52:19.667Z,970.8
2022-11-16T05:54:21.180Z,971
2022-11-16T05:56:22.154Z,971.1
2022-11-16T05:58:23.202Z,971
2022-11-16T06:00:24.687Z,971.2
2022-11-16T06:02:26.173Z,971.1
2022-11-16T06:04:27.431Z,971.1
2022-11-16T06:08:30.658Z,971
2022-11-16T06:10:31.552Z,971.1
2022-11-16T06:12:33.052Z,971.1
2022-11-16T06:14:34.250Z,971.2
2022-11-16T06:16:36.020Z,971.1
2022-11-16T06:18:37.653Z,971.1
2022-11-16T06:20:38.664Z,971.1
2022-11-16T06:22:40.449Z,971.2
2022-11-16T06:24:42.223Z,971.2
2022-11-16T06:26:43.155Z,971.2
2022-11-16T06:28:44.625Z,971.2
2022-11-16T06:30:46.473Z,971.2
2022-11-16T06:32:47.653Z,971.3
2022-11-16T06:34:49.065Z,971.3
2022-11-16T06:36:50.377Z,971.3
2022-11-16T06:38:51.664Z,971.4
2022-11-16T06:40:53.591Z,971.4
2022-11-16T06:42:55.198Z,971.4
2022-11-16T06:44:56.543Z,971.4
2022-11-16T06:46:58.446Z,971.4
2022-11-16T06:51:01.303Z,971.4
2022-11-16T06:53:03.073Z,971.4
2022-11-16T06:55:04.070Z,971.5
2022-11-16T06:57:05.591Z,971.4
2022-11-16T06:59:06.958Z,971.4
2022-11-16T07:01:08.226Z,971.5
2022-11-16T07:03:09.308Z,971.4
2022-11-16T07:05:10.503Z,971.5
2022-11-16T07:07:12.255Z,971.5
2022-11-16T07:09:13.495Z,971.4
2022-11-16T07:11:14.763Z,971.5
2022-11-16T07:13:16.651Z,971.5
2022-11-16T07:15:18.408Z,971.5
2022-11-16T07:17:19.920Z,971.6
2022-11-16T07:19:30.233Z,971.5
2022-11-16T07:21:22.881Z,971.6
2022-11-16T07:23:24.458Z,971.5
2022-11-16T07:27:27.615Z,971.5
2022-11-16T07:29:29.223Z,971.8
2022-11-16T07:31:30.531Z,971.7
2022-11-16T07:33:31.853Z,971.7
2022-11-16T07:35:33.371Z,971.7
2022-11-16T07:37:35.252Z,971.7
2022-11-16T07:39:36.724Z,971.8
2022-11-16T07:41:38.490Z,971.7
2022-11-16T07:43:39.464Z,971.7
2022-11-16T07:45:40.753Z,971.7
2022-11-16T07:47:41.816Z,971.8
2022-11-16T07:49:42.881Z,971.8
2022-11-16T07:51:44.631Z,971.8
2022-11-16T07:53:46.430Z,971.9
2022-11-16T07:55:48.322Z,971.9
2022-11-16T07:57:53.220Z,971.9
2022-11-16T07:59:50.867Z,971.8
2022-11-16T08:01:52.811Z,971.9
2022-11-16T08:03:54.173Z,972
2022-11-16T08:05:55.874Z,972
2022-11-16T08:09:59.565Z,972
2022-11-16T08:12:00.712Z,972.1
2022-11-16T08:14:02.200Z,972
2022-11-16T08:16:03.530Z,972.1
2022-11-16T08:18:04.525Z,972
2022-11-16T08:20:05.818Z,972
2022-11-16T08:22:06.752Z,972.1
2022-11-16T08:24:08.304Z,972.1
2022-11-16T08:26:53.036Z,972.1
2022-11-16T08:28:54.677Z,972.1
2022-11-16T08:30:56.241Z,972.1
2022-11-16T08:32:58.038Z,972.1
2022-11-16T08:34:59.268Z,972.2
2022-11-16T08:37:00.428Z,972.1
2022-11-16T08:39:01.744Z,972.1
2022-11-16T08:41:02.936Z,972.1
2022-11-16T08:43:04.157Z,972.1
2022-11-16T08:45:05.607Z,972.1
2022-11-16T08:47:07.259Z,972.2
2022-11-16T08:49:08.587Z,972.2
2022-11-16T08:51:17.787Z,972.2
2022-11-16T08:53:11.865Z,972.2
2022-11-16T08:55:13.425Z,972.2
2022-11-16T08:57:14.357Z,972.3
2022-11-16T08:59:15.581Z,972.2
2022-11-16T09:01:17.529Z,972.2
2022-11-16T09:03:19.123Z,972.3
2022-11-16T09:05:20.576Z,972.3
2022-11-16T09:09:23.334Z,972.4
2022-11-16T09:11:25.219Z,972.4
2022-11-16T09:13:26.585Z,972.4
2022-11-16T09:15:27.498Z,972.4
2022-11-16T09:17:29.261Z,972.4
2022-11-16T09:19:30.960Z,972.4
2022-11-16T09:21:31.914Z,972.5
2022-11-16T09:23:33.191Z,972.4
2022-11-16T09:25:35.010Z,972.5
2022-11-16T09:27:36.727Z,972.4
2022-11-16T09:29:37.953Z,972.4
2022-11-16T09:31:39.775Z,972.5
2022-11-16T09:35:42.662Z,972.4
2022-11-16T09:37:43.960Z,972.5
2022-11-16T09:39:45.055Z,972.4
2022-11-16T09:41:46.502Z,972.4
2022-11-16T09:45:48.846Z,972.6
2022-11-16T09:47:50.111Z,972.5
2022-11-16T09:49:51.319Z,972.5
2022-11-16T09:51:52.376Z,972.6
2022-11-16T09:53:53.678Z,972.6
2022-11-16T09:55:54.924Z,972.6
2022-11-16T09:57:56.763Z,972.5
2022-11-16T09:59:57.743Z,972.4
2022-11-16T10:01:58.981Z,972.6
2022-11-16T10:04:00.120Z,972.4
2022-11-16T10:06:01.739Z,972.5
2022-11-16T10:08:03.045Z,972.6
2022-11-16T10:10:04.686Z,972.4
2022-11-16T10:12:06.006Z,972.6
2022-11-16T10:14:07.487Z,972.5
2022-11-16T10:16:08.914Z,972.5
2022-11-16T10:18:10.504Z,972.5
2022-11-16T10:20:12.668Z,972.5
2022-11-16T10:22:13.949Z,972.4
2022-11-16T10:24:14.818Z,972.4
2022-11-16T10:26:16.497Z,972.6
2022-11-16T10:28:18.243Z,972.4
2022-11-16T10:30:19.284Z,972.5
2022-11-16T10:32:20.501Z,972.5
2022-11-16T10:34:21.668Z,972.5
2022-11-16T10:36:23.202Z,972.4
2022-11-16T10:40:25.460Z,972.3
2022-11-16T10:42:26.644Z,972.3
2022-11-16T10:44:27.715Z,972.2
2022-11-16T10:46:29.188Z,972.2
2022-11-16T10:48:30.688Z,972.4
2022-11-16T10:50:32.543Z,972.3
2022-11-16T10:52:33.654Z,972.3
2022-11-16T10:54:36.922Z,972.1
2022-11-16T10:56:36.095Z,972.3
2022-11-16T10:58:37.961Z,972.3
2022-11-16T11:00:39.054Z,972.3
2022-11-16T11:02:40.831Z,972.3
2022-11-16T11:04:42.387Z,972.3
2022-11-16T11:06:43.331Z,972.3
2022-11-16T11:08:45.008Z,972.4
2022-11-16T11:10:46.436Z,972.4
2022-11-16T11:12:47.790Z,972.3
2022-11-16T11:16:50.531Z,972.4
2022-11-16T11:18:52.365Z,972.4
2022-11-16T11:20:53.608Z,972.3
2022-11-16T11:22:55.060Z,972.4
2022-11-16T11:24:56.594Z,972.3
2022-11-16T11:26:58.170Z,972.3
2022-11-16T11:28:59.299Z,972.3
2022-11-16T11:31:00.851Z,972.3
2022-11-16T11:33:01.948Z,972.3
2022-11-16T11:35:03.763Z,972.3
2022-11-16T11:37:05.020Z,972.3
2022-11-16T11:39:06.353Z,972.3
2022-11-16T11:41:07.775Z,972.3
2022-11-16T11:43:09.319Z,972.2
2022-11-16T11:45:10.603Z,972.2
2022-11-16T11:47:50.728Z,972.3
2022-11-16T11:49:14.211Z,972.2
2022-11-16T11:51:15.168Z,972.2
2022-11-16T11:53:16.661Z,972.1
2022-11-16T11:55:18.324Z,972.1
2022-11-16T11:57:19.284Z,972.2
2022-11-16T11:59:20.948Z,972
2022-11-16T12:01:25.405Z,972.1
2022-11-16T12:05:24.719Z,972.1
2022-11-16T12:07:25.669Z,972.1
2022-11-16T12:09:26.924Z,972
2022-11-16T12:11:28.377Z,972.1
2022-11-16T12:13:29.313Z,972
2022-11-16T12:15:31.103Z,972.1
2022-11-16T12:17:32.841Z,972.1
2022-11-16T12:19:33.810Z,972.1
2022-11-16T12:21:35.641Z,972
2022-11-16T12:23:36.938Z,972
2022-11-16T12:25:37.681Z,972
2022-11-16T12:27:38.693Z,972
2022-11-16T12:29:39.930Z,972.1
2022-11-16T12:31:41.368Z,972
2022-11-16T12:33:42.354Z,972.1
2022-11-16T12:35:44.038Z,972.1
2022-11-16T12:37:45.325Z,972
2022-11-16T12:39:46.461Z,971.9
2022-11-16T12:41:47.830Z,972
2022-11-16T12:43:49.495Z,972
2022-11-16T12:45:50.826Z,971.9
2022-11-16T12:47:52.650Z,971.9
2022-11-16T12:49:53.735Z,971.9
2022-11-16T12:51:54.959Z,971.7
2022-11-16T12:53:56.444Z,971.9
2022-11-16T12:55:57.398Z,971.8
2022-11-16T12:57:58.429Z,971.8
2022-11-16T12:59:59.739Z,971.8
2022-11-16T13:02:00.933Z,971.7
2022-11-16T13:04:01.663Z,971.7
2022-11-16T13:06:03.400Z,971.7
2022-11-16T13:08:04.357Z,971.6
2022-11-16T13:10:06.133Z,971.7
2022-11-16T13:12:07.012Z,971.8
2022-11-16T13:14:08.946Z,971.8
2022-11-16T13:16:10.265Z,971.8
2022-11-16T13:18:11.207Z,971.8
2022-11-16T13:20:14.878Z,971.7
2022-11-16T13:22:14.437Z,971.8
2022-11-16T13:24:15.290Z,971.8
2022-11-16T13:26:16.481Z,971.8
2022-11-16T13:28:17.457Z,971.7
2022-11-16T13:30:18.476Z,971.7
2022-11-16T13:32:19.420Z,971.6
2022-11-16T13:34:20.495Z,971.7
2022-11-16T13:36:22.192Z,971.7
2022-11-16T13:38:23.228Z,971.6
2022-11-16T13:40:24.362Z,971.6
2022-11-16T13:42:25.932Z,971.6
2022-11-16T13:46:54.602Z,971.5
2022-11-16T13:48:29.946Z,971.5
2022-11-16T13:50:36.033Z,971.5
2022-11-16T13:52:55.473Z,971.5
2022-11-16T13:54:46.340Z,971.5
2022-11-16T13:56:35.174Z,971.5
2022-11-16T13:58:36.802Z,971.5
2022-11-16T14:00:38.273Z,971.5
2022-11-16T14:02:39.337Z,971.6
2022-11-16T14:04:40.946Z,971.5
2022-11-16T14:06:42.293Z,971.5
2022-11-16T14:08:44.017Z,971.5
2022-11-16T14:10:45.295Z,971.4
2022-11-16T14:12:46.647Z,971.4
2022-11-16T14:14:47.635Z,971.4
2022-11-16T14:16:48.918Z,971.4
2022-11-16T14:18:50.417Z,971.3
2022-11-16T14:20:51.503Z,971.4
2022-11-16T14:22:52.983Z,971.4
2022-11-16T14:24:54.014Z,971.2
2022-11-16T14:26:54.987Z,971.3
2022-11-16T14:28:56.605Z,971.2
2022-11-16T14:30:57.880Z,971.4
2022-11-16T14:32:58.857Z,971.5
2022-11-16T14:35:00.462Z,971.5
2022-11-16T14:37:01.585Z,971.5
2022-11-16T14:39:02.910Z,971.5
2022-11-16T14:41:04.346Z,971.4
2022-11-16T14:43:17.116Z,971.3
2022-11-16T14:45:07.129Z,971.2
2022-11-16T14:47:08.545Z,971.2
2022-11-16T14:49:10.119Z,971.2
2022-11-16T14:51:11.297Z,971.2
2022-11-16T14:53:12.553Z,971.2
2022-11-16T14:55:13.873Z,971.3
2022-11-16T14:57:15.695Z,971.2
2022-11-16T14:59:16.617Z,971.2
2022-11-16T15:01:18.308Z,971.2
2022-11-16T15:03:19.247Z,971.1
2022-11-16T15:05:20.886Z,971.2
2022-11-16T15:07:22.157Z,971.1
2022-11-16T15:12:09.018Z,971.1
2022-11-16T15:16:11.154Z,971.1
2022-11-16T15:18:12.177Z,971.1
2022-11-16T15:22:14.855Z,971
2022-11-16T15:24:29.711Z,971
2022-11-16T15:26:17.366Z,971
2022-11-16T15:28:19.108Z,971.1
2022-11-16T15:30:20.593Z,971
2022-11-16T15:32:21.872Z,971.1
2022-11-16T15:34:23.724Z,971.1
2022-11-16T15:36:25.268Z,971
2022-11-16T15:38:27.069Z,971.1
2022-11-16T15:40:28.675Z,971
2022-11-16T15:42:30.503Z,971.1
2022-11-16T15:44:32.285Z,971.1
2022-11-16T15:46:34.061Z,971.2
2022-11-16T15:48:35.449Z,971.2
2022-11-16T15:50:36.501Z,971
2022-11-16T15:52:38.295Z,971.1
2022-11-16T15:54:39.658Z,971.1
2022-11-16T15:56:41.402Z,971.1
2022-11-16T15:58:43.313Z,971.1
2022-11-16T16:00:45.238Z,971
2022-11-16T16:04:47.718Z,970.9
2022-11-16T16:06:48.782Z,970.9
2022-11-16T16:08:50.175Z,970.9
2022-11-16T16:10:51.553Z,970.9
2022-11-16T16:12:52.980Z,970.8
2022-11-16T16:14:54.297Z,970.8
2022-11-16T16:16:56.031Z,970.8
2022-11-16T16:20:58.955Z,970.9
2022-11-16T16:23:00.077Z,970.9
2022-11-16T16:25:01.065Z,970.9
2022-11-16T16:27:02.211Z,970.9
2022-11-16T16:29:03.763Z,970.9
2022-11-16T16:31:05.186Z,971
2022-11-16T16:33:06.968Z,971
2022-11-16T16:35:08.703Z,970.9
2022-11-16T16:37:09.914Z,970.9
2022-11-16T16:39:11.019Z,970.9
2022-11-16T16:41:12.298Z,970.8
2022-11-16T16:43:13.245Z,970.9
2022-11-16T16:45:14.538Z,970.8
2022-11-16T16:47:16.304Z,970.8
2022-11-16T16:49:17.308Z,970.8
2022-11-16T16:51:18.928Z,970.8
2022-11-16T16:53:20.426Z,970.7
2022-11-16T16:55:22.300Z,970.6
2022-11-16T16:57:23.952Z,970.7
2022-11-16T16:59:25.915Z,970.6
2022-11-16T17:01:27.636Z,970.7
2022-11-16T17:03:29.148Z,970.7
2022-11-16T17:05:30.211Z,970.7
2022-11-16T17:07:31.290Z,970.7
2022-11-16T17:09:41.698Z,970.7
2022-11-16T17:11:34.304Z,970.7
2022-11-16T17:13:35.551Z,970.6
2022-11-16T17:15:37.011Z,970.6
2022-11-16T17:17:38.012Z,970.8
2022-11-16T17:19:39.689Z,970.6
2022-11-16T17:21:41.366Z,970.6
2022-11-16T17:23:42.848Z,970.5
2022-11-16T17:25:44.827Z,970.5
2022-11-16T17:29:48.494Z,970.4
2022-11-16T17:31:49.458Z,970.5
2022-11-16T17:33:50.424Z,970.4
2022-11-16T17:35:51.971Z,970.5
2022-11-16T17:39:54.864Z,970.4
2022-11-16T17:41:56.026Z,970.4
2022-11-16T17:43:57.644Z,970.4
2022-11-16T17:45:58.906Z,970.4
2022-11-16T17:47:59.933Z,970.4
2022-11-16T17:50:01.753Z,970.4
2022-11-16T17:52:02.892Z,970.5
2022-11-16T17:54:04.267Z,970.5
2022-11-16T17:56:05.312Z,970.4
2022-11-16T17:58:06.850Z,970.3
2022-11-16T18:00:08.649Z,970.3
2022-11-16T18:02:10.573Z,970.3
2022-11-16T18:04:11.925Z,970.2
2022-11-16T18:06:12.913Z,970.2
2022-11-16T18:08:14.786Z,970.2
2022-11-16T18:10:19.162Z,970.3
2022-11-16T18:12:17.920Z,970.3
2022-11-16T18:14:18.975Z,970.2
2022-11-16T18:16:20.013Z,970.2
2022-11-16T18:18:30.861Z,970.1
2022-11-16T18:20:23.782Z,970.2
2022-11-16T18:22:24.928Z,970.2
2022-11-16T18:24:25.917Z,970.2
2022-11-16T18:28:28.716Z,970.2
2022-11-16T18:30:29.859Z,970.1
2022-11-16T18:32:31.160Z,970.1
2022-11-16T18:34:32.751Z,970
2022-11-16T18:36:34.300Z,970
2022-11-16T18:38:35.392Z,970.1
2022-11-16T18:40:36.605Z,969.9
2022-11-16T18:42:37.645Z,969.8
2022-11-16T18:44:38.685Z,969.9
2022-11-16T18:46:39.915Z,969.9
2022-11-16T18:48:41.058Z,969.8
2022-11-16T18:50:42.158Z,969.8
2022-11-16T18:52:44.072Z,969.7
2022-11-16T18:54:45.447Z,969.7
2022-11-16T18:56:46.519Z,969.7
2022-11-16T18:58:50.700Z,969.6
2022-11-16T19:00:49.469Z,969.5
2022-11-16T19:02:51.045Z,969.4
2022-11-16T19:04:52.158Z,969.4
2022-11-16T19:06:53.325Z,969.4
2022-11-16T19:08:55.939Z,969.4
2022-11-16T19:10:55.983Z,969.4
2022-11-16T19:12:57.095Z,969.3
2022-11-16T19:14:59.016Z,969.4
2022-11-16T19:17:00.374Z,969.2
2022-11-16T19:19:01.646Z,969.3
2022-11-16T19:21:03.451Z,969.2
2022-11-16T19:23:04.987Z,969.3
2022-11-16T19:25:06.700Z,969.2
2022-11-16T19:27:07.934Z,969.3
2022-11-16T19:29:09.262Z,969.3
2022-11-16T19:31:10.877Z,969.3
2022-11-16T19:33:12.347Z,969.2
2022-11-16T19:35:13.888Z,969.3
2022-11-16T19:37:15.048Z,969.2
2022-11-16T19:39:16.413Z,969.1
2022-11-16T19:41:17.446Z,969.2
2022-11-16T19:43:19.326Z,969.2
2022-11-16T19:45:21.187Z,969.2
2022-11-16T19:47:22.396Z,969.2
2022-11-16T19:49:24.234Z,969.3
2022-11-16T19:53:27.760Z,969.3
2022-11-16T19:55:28.801Z,969.4
2022-11-16T19:57:30.565Z,969.4
2022-11-16T19:59:31.563Z,969.4
2022-11-16T20:03:34.727Z,969.3
2022-11-16T20:05:35.507Z,969.4
2022-11-16T20:07:36.733Z,969.3
2022-11-16T20:09:37.844Z,969.3
